Gerald R. Ford International Airport
KGRR : now visible

Airfield :











YOU CAN JOIN US ON...

 
LOGIN :

Register | Disclaimer

   EN    FR    IT 

 









Legend :    VFR   Marginal VFR   IFR   Intensive IFR   Very Intensive IFR
Visi :
Ceiling :
>= 8 km
>= 3000ft
5 to 8 km
1000 to 3000 ft
1500m to 5 km
500 to 1000 ft
800 to 1500m
200 to 500 ft
< 800m
< 200 ft
Symbols :   Thunderstorms  Fog  Heavy snow  Heavy precipitations  Wind > 20 kt






- Airport Elevation : 794 ft
- IATA code : GRR


KGRR - Gerald R. Ford International

CURRENT METAR :
  • 101753Z 09013KT 10SM FEW075 BKN100 BKN110 OVC250 20/11 A2960 RMK AO2 SLP024 T02000111 10211 20072 58030

EXPIRED METARs :
  • 101653Z 09013KT 10SM BKN080 BKN100 20/11 A2963 RMK AO2 SLP034 T02000106
  • 101553Z 08010KT 10SM FEW070 BKN110 BKN150 19/11 A2967 RMK AO2 SLP044 T01890106

TAF KGRR
Valid from the 10 at 18:00 until the 11 at 18:00 UTC


101740Z 1018/1118 12009KT P6SM -SHRA BKN050
TEMPO 1019/1021 15018G30KT 2SM TSRA BR BKN030CB
FM102100 13012G20KT 3SM SHRA BR BKN015
FM110200 16012G20KT 3SM SHRA BR BKN009
FM110600 20009G16KT P6SM SCT025
FM111100 16009KT 5SM -SHRA BR BKN015
KZAU FIR / North America



MET'MAP, your aeronautical weather chart ! - Copyright ORBIFLY December 2007 - Disclaimer

ORBIFLY MET'MAP TEAM :

Programming & Development : Alexandra Zaïnal
Concept & original design : Baudouin d'Aumeries
Assistance for programming : Marc-Olivier Méhu
Technical & hardware support : Manuel Goepfert

Contact : metmap@orbifly.com




SOURCES & CREDITS :

   NOAA       Earth
Advisory